Time;durP1;ratioP1;P1;durP2;ratioP2;P2;SDS_P1;SDS_P2;PMS_P1;PMS_P2;Temp;Humidity;BMP_temperature;BMP_pressure;BME280_temperature;BME280_humidity;BME280_pressure;Samples;Min_cycle;Max_cycle;Signal;HPM_P1;HPM_P2
2021/12/28 00:01:10;;;;;;;1999.90;999.90;;;4.50;99.90;;;;;;5012500;28;20514;-72
2021/12/28 00:03:40;;;;;;;1999.90;999.90;;;4.30;99.90;;;;;;5012824;28;20502;-72
2021/12/28 00:06:07;;;;;;;1999.90;999.90;;;4.40;99.90;;;;;;5012133;28;20567;-74
2021/12/28 00:08:35;;;;;;;1999.90;999.90;;;4.40;99.90;;;;;;5013918;28;20452;-72
2021/12/28 00:11:02;;;;;;;1999.90;999.90;;;4.30;99.90;;;;;;5013792;28;20510;-72
2021/12/28 00:13:30;;;;;;;1999.90;999.90;;;4.30;99.90;;;;;;5012907;28;20480;-72
2021/12/28 00:16:13;;;;;;;1999.90;999.90;;;4.40;99.90;;;;;;5012765;28;20575;-72
2021/12/28 00:18:40;;;;;;;1999.90;999.90;;;4.60;99.90;;;;;;5012656;28;20467;-73
2021/12/28 00:21:08;;;;;;;1999.90;999.90;;;4.70;99.90;;;;;;5012088;28;20448;-72
2021/12/28 00:23:39;;;;;;;1999.90;999.90;;;4.60;99.90;;;;;;5013157;28;20468;-73
2021/12/28 00:26:07;;;;;;;1999.90;999.90;;;4.60;99.90;;;;;;5012826;28;20542;-73
2021/12/28 00:28:34;;;;;;;1999.90;999.90;;;4.50;99.90;;;;;;5011972;28;20448;-72
2021/12/28 00:31:02;;;;;;;1999.90;999.90;;;4.40;99.90;;;;;;5012582;28;20448;-72
2021/12/28 00:33:29;;;;;;;1999.90;999.90;;;4.40;99.90;;;;;;5013228;28;20468;-71
2021/12/28 00:35:55;;;;;;;1999.90;999.90;;;4.60;99.90;;;;;;5013273;28;20452;-72
2021/12/28 00:38:26;;;;;;;1999.90;999.90;;;4.60;99.90;;;;;;5013975;28;20479;-72
2021/12/28 00:40:57;;;;;;;1999.90;999.90;;;4.50;99.90;;;;;;5012767;28;20448;-72
2021/12/28 00:43:24;;;;;;;1999.90;999.90;;;4.40;99.90;;;;;;5012617;28;20472;-72
2021/12/28 00:45:51;;;;;;;1999.90;999.90;;;4.40;99.90;;;;;;5013345;28;20507;-72
2021/12/28 00:48:18;;;;;;;1999.90;999.90;;;4.50;99.90;;;;;;5012331;28;20943;-74
2021/12/28 00:50:45;;;;;;;1999.90;999.90;;;4.50;99.90;;;;;;5013611;28;20440;-72
2021/12/28 00:53:12;;;;;;;1999.90;999.90;;;4.70;99.90;;;;;;5012539;28;21000;-73
2021/12/28 00:55:39;;;;;;;1999.90;999.90;;;4.80;99.90;;;;;;5012970;28;20444;-72
2021/12/28 00:58:07;;;;;;;1999.90;999.90;;;4.80;99.90;;;;;;5012744;28;20456;-72
2021/12/28 01:00:37;;;;;;;1999.90;999.90;;;4.50;99.90;;;;;;5011630;28;20452;-72
2021/12/28 01:03:05;;;;;;;1999.90;999.90;;;4.20;99.90;;;;;;5011909;28;20464;-72
2021/12/28 01:05:33;;;;;;;1999.90;999.90;;;3.90;99.90;;;;;;5007928;28;20440;-73
2021/12/28 01:08:00;;;;;;;1999.90;999.90;;;3.80;99.90;;;;;;5012173;28;20866;-73
2021/12/28 01:10:29;;;;;;;1999.90;999.90;;;3.80;99.90;;;;;;5011470;28;20518;-71
2021/12/28 01:12:56;;;;;;;1999.90;999.90;;;3.70;99.90;;;;;;5011731;28;20491;-74
2021/12/28 01:15:26;;;;;;;1999.90;999.90;;;3.70;99.90;;;;;;5011652;28;20452;-72
2021/12/28 01:17:53;;;;;;;1999.90;999.90;;;3.70;99.90;;;;;;5012098;28;20502;-73
2021/12/28 01:20:19;;;;;;;1999.90;999.90;;;3.70;99.90;;;;;;5011749;28;20448;-73
2021/12/28 01:22:47;;;;;;;1999.90;999.90;;;3.80;99.90;;;;;;5011714;28;20463;-72
2021/12/28 01:25:16;;;;;;;1999.90;999.90;;;3.70;99.90;;;;;;5011675;28;20452;-73
2021/12/28 01:27:43;;;;;;;1999.90;999.90;;;3.50;99.90;;;;;;5012153;28;20476;-74
2021/12/28 01:30:11;;;;;;;1999.90;999.90;;;3.60;99.90;;;;;;5010904;28;20874;-73
2021/12/28 01:32:39;;;;;;;1999.90;999.90;;;3.60;99.90;;;;;;5011292;28;21054;-73
2021/12/28 01:35:10;;;;;;;1999.90;999.90;;;3.60;99.90;;;;;;5011683;28;20448;-73
2021/12/28 01:37:38;;;;;;;1999.90;999.90;;;3.80;99.90;;;;;;5011623;28;20482;-73
2021/12/28 01:40:06;;;;;;;1999.90;999.90;;;4.00;99.90;;;;;;5015328;28;20509;-73
2021/12/28 01:42:32;;;;;;;1999.90;999.90;;;4.00;99.90;;;;;;5015693;28;20472;-73
2021/12/28 01:44:59;;;;;;;1999.90;999.90;;;3.90;99.90;;;;;;5015713;28;20502;-72
2021/12/28 01:47:27;;;;;;;1999.90;999.90;;;3.90;99.90;;;;;;5015596;28;20510;-72
2021/12/28 01:49:55;;;;;;;1999.90;999.90;;;4.00;99.90;;;;;;5016047;28;20456;-72
2021/12/28 01:52:22;;;;;;;1999.90;999.90;;;4.20;99.90;;;;;;5015775;28;21874;-73
2021/12/28 01:54:49;;;;;;;1999.90;999.90;;;4.40;99.90;;;;;;5015534;28;20448;-73
2021/12/28 01:57:19;;;;;;;1999.90;999.90;;;4.50;99.90;;;;;;5016427;28;20448;-72
2021/12/28 01:59:46;;;;;;;1999.90;999.90;;;4.60;99.90;;;;;;5016953;28;20456;-73
2021/12/28 02:02:12;;;;;;;1999.90;999.90;;;4.70;99.90;;;;;;5015810;28;21069;-72
2021/12/28 02:04:39;;;;;;;1999.90;999.90;;;4.80;99.90;;;;;;5015849;28;20502;-72
2021/12/28 02:07:07;;;;;;;1999.90;999.90;;;5.10;99.90;;;;;;5014785;28;20542;-71
2021/12/28 02:09:34;;;;;;;1999.90;999.90;;;5.50;99.90;;;;;;5016234;28;20506;-72
2021/12/28 02:12:00;;;;;;;1999.90;999.90;;;5.60;99.90;;;;;;5016017;28;20448;-73
2021/12/28 02:14:27;;;;;;;1999.90;999.90;;;5.70;99.90;;;;;;5015411;28;20506;-72
2021/12/28 02:16:54;;;;;;;1999.90;999.90;;;5.90;99.90;;;;;;5014631;28;20455;-72
2021/12/28 02:19:20;;;;;;;1999.90;999.90;;;6.00;99.90;;;;;;5016772;28;20452;-71
2021/12/28 02:21:48;;;;;;;1999.90;999.90;;;6.10;99.90;;;;;;5016368;28;20464;-73
2021/12/28 02:24:15;;;;;;;1999.90;999.90;;;6.10;99.90;;;;;;5016567;28;20476;-73
2021/12/28 02:26:42;;;;;;;1999.90;999.90;;;6.10;99.90;;;;;;5016519;28;20479;-72
2021/12/28 02:29:08;;;;;;;1999.90;999.90;;;6.10;99.90;;;;;;5017964;28;20502;-72
2021/12/28 02:31:35;;;;;;;1999.90;999.90;;;6.10;99.90;;;;;;5016411;28;20449;-71
2021/12/28 02:34:03;;;;;;;1999.90;999.90;;;6.10;99.90;;;;;;5015665;28;20525;-72
2021/12/28 02:36:29;;;;;;;1999.90;999.90;;;6.10;99.90;;;;;;5016818;28;20494;-72
2021/12/28 02:38:57;;;;;;;1999.90;999.90;;;5.90;99.90;;;;;;5015895;28;20452;-72
2021/12/28 02:41:24;;;;;;;1999.90;999.90;;;5.90;99.90;;;;;;5014640;28;20456;-73
2021/12/28 02:43:51;;;;;;;1999.90;999.90;;;5.70;99.90;;;;;;5014423;28;21047;-72
2021/12/28 02:46:18;;;;;;;1999.90;999.90;;;5.70;99.90;;;;;;5015401;28;20479;-73
2021/12/28 02:48:45;;;;;;;1999.90;999.90;;;5.70;99.90;;;;;;5014172;28;20451;-72
2021/12/28 02:51:15;;;;;;;1999.90;999.90;;;5.60;99.90;;;;;;5012579;28;20448;-73
2021/12/28 02:53:42;;;;;;;1999.90;999.90;;;5.60;99.90;;;;;;5013714;28;20468;-74
2021/12/28 02:56:11;;;;;;;1999.90;999.90;;;5.60;99.90;;;;;;5013662;28;20481;-73
2021/12/28 02:58:40;;;;;;;1999.90;999.90;;;5.50;99.90;;;;;;5013757;28;20948;-73
2021/12/28 03:01:09;;;;;;;1999.90;999.90;;;5.50;99.90;;;;;;5013976;28;20483;-73
2021/12/28 03:03:38;;;;;;;1999.90;999.90;;;5.40;99.90;;;;;;5013725;28;20523;-74
2021/12/28 03:06:08;;;;;;;1999.90;999.90;;;5.40;99.90;;;;;;5014128;28;20448;-72
2021/12/28 03:08:36;;;;;;;1999.90;999.90;;;5.30;99.90;;;;;;5013571;28;20506;-73
2021/12/28 03:11:04;;;;;;;1999.90;999.90;;;5.30;99.90;;;;;;5013702;28;20487;-73
2021/12/28 03:13:35;;;;;;;1999.90;999.90;;;5.30;99.90;;;;;;5013352;28;20487;-73
2021/12/28 03:16:02;;;;;;;1999.90;999.90;;;5.30;99.90;;;;;;5014044;28;20447;-72
2021/12/28 03:18:29;;;;;;;1999.90;999.90;;;5.30;99.90;;;;;;5014836;28;20884;-72
2021/12/28 03:20:55;;;;;;;1999.90;999.90;;;5.30;99.90;;;;;;5016866;28;20456;-74
2021/12/28 03:23:24;;;;;;;1999.90;999.90;;;5.30;99.90;;;;;;5017365;28;20530;-72
2021/12/28 03:25:52;;;;;;;1999.90;999.90;;;5.20;99.90;;;;;;5018411;28;20452;-72
2021/12/28 03:28:21;;;;;;;1999.90;999.90;;;5.10;99.90;;;;;;5017983;28;20479;-72
2021/12/28 03:30:52;;;;;;;1999.90;999.90;;;5.10;99.90;;;;;;5018211;28;20456;-72
2021/12/28 03:33:19;;;;;;;1999.90;999.90;;;5.10;99.90;;;;;;5017573;28;20898;-73
2021/12/28 03:35:46;;;;;;;1999.90;999.90;;;5.00;99.90;;;;;;5015834;28;20525;-72
2021/12/28 03:38:13;;;;;;;1999.90;999.90;;;5.00;99.90;;;;;;5016843;28;20498;-71
2021/12/28 03:40:40;;;;;;;1999.90;999.90;;;5.20;99.90;;;;;;5015981;28;20509;-72
2021/12/28 03:43:06;;;;;;;1999.90;999.90;;;5.30;99.90;;;;;;5015713;28;20526;-71
2021/12/28 03:45:33;;;;;;;1999.90;999.90;;;5.30;99.90;;;;;;5015319;28;20448;-71
2021/12/28 03:48:01;;;;;;;1999.90;999.90;;;5.40;99.90;;;;;;5017003;28;20510;-72
2021/12/28 03:50:28;;;;;;;1999.90;999.90;;;5.40;99.90;;;;;;5015898;28;20507;-73
2021/12/28 03:52:55;;;;;;;1999.90;999.90;;;5.40;99.90;;;;;;5014911;28;20522;-72
2021/12/28 03:55:23;;;;;;;1999.90;999.90;;;5.30;99.90;;;;;;5013922;28;20452;-74
2021/12/28 03:57:50;;;;;;;1999.90;999.90;;;5.30;99.90;;;;;;5013570;28;20518;-72
2021/12/28 04:00:20;;;;;;;1999.90;999.90;;;5.30;99.90;;;;;;5013859;28;20514;-72
2021/12/28 04:02:47;;;;;;;1999.90;999.90;;;5.30;99.90;;;;;;5014932;28;20495;-72
2021/12/28 04:05:16;;;;;;;1999.90;999.90;;;5.20;99.90;;;;;;5016547;28;20460;-72
2021/12/28 04:07:44;;;;;;;1999.90;999.90;;;5.20;99.90;;;;;;5017230;28;20507;-73
2021/12/28 04:10:11;;;;;;;1999.90;999.90;;;5.20;99.90;;;;;;5015750;28;20531;-72
2021/12/28 04:12:41;;;;;;;1999.90;999.90;;;5.20;99.90;;;;;;5016857;28;20507;-72
2021/12/28 04:15:11;;;;;;;1999.90;999.90;;;5.20;99.90;;;;;;5015677;28;21039;-71
2021/12/28 04:17:39;;;;;;;1999.90;999.90;;;5.30;99.90;;;;;;5014015;28;20507;-72
2021/12/28 04:20:09;;;;;;;1999.90;999.90;;;5.40;99.90;;;;;;5014925;28;20448;-74
2021/12/28 04:22:37;;;;;;;1999.90;999.90;;;5.40;99.90;;;;;;5016223;28;20464;-72
2021/12/28 04:25:05;;;;;;;1999.90;999.90;;;5.40;99.90;;;;;;5015685;28;21103;-72
2021/12/28 04:27:33;;;;;;;1999.90;999.90;;;5.30;99.90;;;;;;5017045;28;20991;-72
2021/12/28 04:29:59;;;;;;;1999.90;999.90;;;5.30;99.90;;;;;;5015836;28;20456;-71
2021/12/28 04:32:26;;;;;;;1999.90;999.90;;;5.30;99.90;;;;;;5015049;28;20476;-72
2021/12/28 04:34:53;;;;;;;1999.90;999.90;;;5.30;99.90;;;;;;5015949;28;20444;-72
2021/12/28 04:37:19;;;;;;;1999.90;999.90;;;5.20;99.90;;;;;;5013877;28;20514;-72
2021/12/28 04:39:47;;;;;;;1999.90;999.90;;;5.20;99.90;;;;;;5014235;28;20457;-71
2021/12/28 04:42:14;;;;;;;1999.90;999.90;;;5.10;99.90;;;;;;5014697;28;20464;-72
2021/12/28 04:44:41;;;;;;;1999.90;999.90;;;5.10;99.90;;;;;;5015314;28;20448;-72
2021/12/28 04:47:07;;;;;;;1999.90;999.90;;;5.10;99.90;;;;;;5016500;28;20482;-72
2021/12/28 04:49:36;;;;;;;1999.90;999.90;;;5.10;99.90;;;;;;5016387;28;21014;-74
2021/12/28 04:52:04;;;;;;;1999.90;999.90;;;5.10;99.90;;;;;;5017021;28;20455;-72
2021/12/28 04:54:31;;;;;;;1999.90;999.90;;;5.10;99.90;;;;;;5016919;28;20865;-73
2021/12/28 04:56:59;;;;;;;1999.90;999.90;;;5.20;99.90;;;;;;5017374;28;20448;-71
2021/12/28 04:59:25;;;;;;;1999.90;999.90;;;5.30;99.90;;;;;;5015878;28;20480;-72
2021/12/28 05:01:52;;;;;;;1999.90;999.90;;;5.20;99.90;;;;;;5016691;28;20494;-72
2021/12/28 05:04:19;;;;;;;1999.90;999.90;;;5.00;99.90;;;;;;5016414;28;20472;-72
2021/12/28 05:06:45;;;;;;;1999.90;999.90;;;4.90;99.90;;;;;;5015963;28;20455;-72
2021/12/28 05:09:15;;;;;;;1999.90;999.90;;;5.00;99.90;;;;;;5017535;28;20483;-72
2021/12/28 05:11:43;;;;;;;1999.90;999.90;;;4.90;99.90;;;;;;5017168;28;20456;-72
2021/12/28 05:14:11;;;;;;;1999.90;999.90;;;4.80;99.90;;;;;;5018880;28;20482;-72
2021/12/28 05:16:38;;;;;;;1999.90;999.90;;;4.80;99.90;;;;;;5021515;28;20863;-72
2021/12/28 05:19:07;;;;;;;1999.90;999.90;;;4.70;99.90;;;;;;5020188;28;20456;-74
2021/12/28 05:21:34;;;;;;;1999.90;999.90;;;4.70;99.90;;;;;;5020819;28;20482;-72
2021/12/28 05:24:01;;;;;;;1999.90;999.90;;;4.60;99.90;;;;;;5018076;28;20533;-74
2021/12/28 05:26:28;;;;;;;1999.90;999.90;;;4.50;99.90;;;;;;5016885;28;20474;-72
2021/12/28 05:28:55;;;;;;;1999.90;999.90;;;4.40;99.90;;;;;;5016537;28;20886;-72
2021/12/28 05:31:25;;;;;;;1999.90;999.90;;;4.30;99.90;;;;;;5016281;28;20533;-72
2021/12/28 05:33:53;;;;;;;1999.90;999.90;;;4.10;99.90;;;;;;5015617;28;20484;-72
2021/12/28 05:36:20;;;;;;;1999.90;999.90;;;4.10;99.90;;;;;;5017773;28;20456;-71
2021/12/28 05:38:46;;;;;;;1999.90;999.90;;;4.20;99.90;;;;;;5017378;28;20448;-73
2021/12/28 05:41:13;;;;;;;1999.90;999.90;;;4.10;99.90;;;;;;5018146;28;20510;-71
2021/12/28 05:43:40;;;;;;;1999.90;999.90;;;4.10;99.90;;;;;;5017373;28;20951;-72
2021/12/28 05:46:06;;;;;;;1999.90;999.90;;;4.10;99.90;;;;;;5018498;28;20529;-72
2021/12/28 05:48:34;;;;;;;1999.90;999.90;;;4.10;99.90;;;;;;5017165;28;20479;-73
2021/12/28 05:51:01;;;;;;;1999.90;999.90;;;3.90;99.90;;;;;;5015121;28;20448;-72
2021/12/28 05:53:28;;;;;;;1999.90;999.90;;;3.90;99.90;;;;;;5015930;28;21057;-72
2021/12/28 05:55:54;;;;;;;1999.90;999.90;;;3.80;99.90;;;;;;5016569;28;20460;-72
2021/12/28 05:58:21;;;;;;;1999.90;999.90;;;3.70;99.90;;;;;;5016507;28;20452;-71
2021/12/28 06:00:48;;;;;;;1999.90;999.90;;;3.70;99.90;;;;;;5016837;28;20480;-73
2021/12/28 06:03:14;;;;;;;1999.90;999.90;;;3.60;99.90;;;;;;5015746;28;20526;-73
2021/12/28 06:05:42;;;;;;;1999.90;999.90;;;3.70;99.90;;;;;;5015295;28;20448;-72
2021/12/28 06:08:09;;;;;;;1999.90;999.90;;;3.80;99.90;;;;;;5015539;28;20479;-73
2021/12/28 06:10:36;;;;;;;1999.90;999.90;;;3.80;99.90;;;;;;5014598;28;20459;-73
2021/12/28 06:13:02;;;;;;;1999.90;999.90;;;3.70;99.90;;;;;;5014520;28;21069;-73
2021/12/28 06:15:29;;;;;;;1999.90;999.90;;;3.60;99.90;;;;;;5013589;28;20830;-73
2021/12/28 06:17:56;;;;;;;1999.90;999.90;;;3.60;99.90;;;;;;5014887;28;20940;-73
2021/12/28 06:20:22;;;;;;;1999.90;999.90;;;3.40;99.90;;;;;;5014568;28;20477;-73
2021/12/28 06:22:50;;;;;;;1999.90;999.90;;;3.20;99.90;;;;;;5014987;28;20538;-72
2021/12/28 06:25:17;;;;;;;1999.90;999.90;;;3.20;99.90;;;;;;5014540;28;20459;-72
2021/12/28 06:27:44;;;;;;;1999.90;999.90;;;3.10;99.90;;;;;;5014475;28;20992;-73
2021/12/28 06:30:11;;;;;;;1999.90;999.90;;;3.10;99.90;;;;;;5014166;28;20447;-73
2021/12/28 06:32:38;;;;;;;1999.90;999.90;;;3.20;99.90;;;;;;5014602;28;20519;-74
2021/12/28 06:35:06;;;;;;;1999.90;999.90;;;2.90;99.90;;;;;;5014974;28;20474;-72
2021/12/28 06:37:33;;;;;;;1999.90;999.90;;;2.90;99.90;;;;;;5014739;28;20445;-73
2021/12/28 06:40:01;;;;;;;1999.90;999.90;;;2.90;99.90;;;;;;5014309;28;20518;-72
2021/12/28 06:42:27;;;;;;;1999.90;999.90;;;2.80;99.90;;;;;;5014159;28;20538;-73
2021/12/28 06:44:55;;;;;;;1999.90;999.90;;;2.80;99.90;;;;;;5014180;28;20538;-73
2021/12/28 06:47:22;;;;;;;1999.90;999.90;;;2.70;99.90;;;;;;5014205;28;20838;-73
2021/12/28 06:49:48;;;;;;;1999.90;999.90;;;2.80;99.90;;;;;;5014370;28;20460;-72
2021/12/28 06:52:15;;;;;;;1999.90;999.90;;;2.80;99.90;;;;;;5014113;28;20452;-72
2021/12/28 06:54:44;;;;;;;1999.90;999.90;;;3.30;99.90;;;;;;5013776;28;20494;-74
2021/12/28 06:57:13;;;;;;;1999.90;999.90;;;3.20;99.90;;;;;;5013712;28;20459;-73
2021/12/28 06:59:43;;;;;;;1999.90;999.90;;;3.20;99.90;;;;;;5014406;28;20456;-73
2021/12/28 07:02:11;;;;;;;1999.90;999.90;;;3.30;99.90;;;;;;5013494;28;20463;-72
2021/12/28 07:04:38;;;;;;;1999.90;999.90;;;3.20;99.90;;;;;;5013919;28;20460;-72
2021/12/28 07:07:05;;;;;;;1999.90;999.90;;;3.40;99.90;;;;;;5013836;28;20874;-73
2021/12/28 07:09:32;;;;;;;1999.90;999.90;;;3.30;99.90;;;;;;5013450;28;20488;-73
2021/12/28 07:11:59;;;;;;;1999.90;999.90;;;3.20;99.90;;;;;;5013897;28;20482;-72
2021/12/28 07:14:28;;;;;;;1999.90;999.90;;;3.20;99.90;;;;;;5013910;28;20476;-72
2021/12/28 07:16:54;;;;;;;1999.90;999.90;;;3.20;99.90;;;;;;5013723;28;20514;-72
2021/12/28 07:19:21;;;;;;;1999.90;999.90;;;3.20;99.90;;;;;;5013902;28;20452;-72
2021/12/28 07:21:48;;;;;;;1999.90;999.90;;;3.30;99.90;;;;;;5013460;28;20964;-73
2021/12/28 07:24:14;;;;;;;1999.90;999.90;;;3.10;99.90;;;;;;5013334;28;20562;-73
2021/12/28 07:26:41;;;;;;;1999.90;999.90;;;3.10;99.90;;;;;;5013372;28;20868;-73
2021/12/28 07:29:08;;;;;;;1999.90;999.90;;;3.00;99.90;;;;;;5013656;28;20487;-72
2021/12/28 07:31:36;;;;;;;1999.90;999.90;;;3.00;99.90;;;;;;5013102;28;20451;-73
2021/12/28 07:34:03;;;;;;;1999.90;999.90;;;3.00;99.90;;;;;;5012882;28;20530;-73
2021/12/28 07:36:30;;;;;;;1999.90;999.90;;;3.00;99.90;;;;;;5013349;28;20518;-73
2021/12/28 07:38:57;;;;;;;1999.90;999.90;;;3.00;99.90;;;;;;5012302;28;20944;-73
2021/12/28 07:41:24;;;;;;;1999.90;999.90;;;3.00;99.90;;;;;;5002011;28;20449;-72
2021/12/28 07:43:51;;;;;;;1999.90;999.90;;;2.90;99.90;;;;;;5010853;28;20495;-73
2021/12/28 07:46:18;;;;;;;1999.90;999.90;;;3.00;99.90;;;;;;5013357;28;20928;-73
2021/12/28 07:48:46;;;;;;;1999.90;999.90;;;3.00;99.90;;;;;;5013273;28;21063;-73
2021/12/28 07:51:12;;;;;;;1999.90;999.90;;;3.00;99.90;;;;;;5012513;28;21026;-73
2021/12/28 07:53:39;;;;;;;1999.90;999.90;;;3.00;99.90;;;;;;5012689;28;20530;-71
2021/12/28 07:56:06;;;;;;;1999.90;999.90;;;3.00;99.90;;;;;;5012807;28;20456;-71
2021/12/28 07:58:33;;;;;;;1999.90;999.90;;;3.50;99.90;;;;;;5013231;28;20572;-72
2021/12/28 08:01:00;;;;;;;1999.90;999.90;;;3.50;99.90;;;;;;5012558;28;20448;-72
2021/12/28 08:03:26;;;;;;;1999.90;999.90;;;3.90;99.90;;;;;;5012794;28;20467;-72
2021/12/28 08:05:54;;;;;;;1999.90;999.90;;;4.50;99.90;;;;;;5012532;28;20456;-72
2021/12/28 08:08:21;;;;;;;1999.90;999.90;;;4.70;99.90;;;;;;5008257;28;20518;-71
2021/12/28 08:10:48;;;;;;;1999.90;999.90;;;4.80;99.90;;;;;;5010455;28;20503;-72
2021/12/28 08:13:16;;;;;;;1999.90;999.90;;;4.90;99.90;;;;;;5008049;28;21143;-72
2021/12/28 08:15:43;;;;;;;1999.90;999.90;;;5.00;99.90;;;;;;5006116;28;20492;-72
2021/12/28 08:18:10;;;;;;;1999.90;999.90;;;5.10;99.90;;;;;;5006787;28;20444;-72
2021/12/28 08:20:37;;;;;;;1999.90;999.90;;;5.20;99.90;;;;;;5011193;28;20459;-72
2021/12/28 08:23:07;;;;;;;1999.90;999.90;;;5.30;99.90;;;;;;5009831;28;21204;-72
2021/12/28 08:25:33;;;;;;;1999.90;999.90;;;5.40;99.90;;;;;;5010853;28;20875;-71
2021/12/28 08:28:04;;;;;;;1999.90;999.90;;;5.30;99.90;;;;;;5011436;28;20488;-71
2021/12/28 08:30:34;;;;;;;1999.90;999.90;;;5.30;99.90;;;;;;5012283;28;20563;-73
2021/12/28 08:33:01;;;;;;;1999.90;999.90;;;5.20;99.90;;;;;;5012599;28;20487;-74
2021/12/28 08:35:28;;;;;;;1999.90;999.90;;;5.10;99.90;;;;;;5012945;28;20468;-71
2021/12/28 08:37:55;;;;;;;1999.90;999.90;;;5.00;99.90;;;;;;5007052;28;20448;-71
2021/12/28 08:40:24;;;;;;;1999.90;999.90;;;5.20;99.90;;;;;;5010688;28;20518;-73
2021/12/28 08:42:50;;;;;;;1999.90;999.90;;;5.20;99.90;;;;;;5012034;28;20490;-72
2021/12/28 08:45:17;;;;;;;1999.90;999.90;;;5.40;99.90;;;;;;5010676;28;20956;-71
2021/12/28 08:47:45;;;;;;;1999.90;999.90;;;5.50;99.90;;;;;;5009566;28;20460;-73
2021/12/28 08:50:13;;;;;;;1999.90;999.90;;;5.50;99.90;;;;;;5013509;28;20452;-71
2021/12/28 08:52:41;;;;;;;1999.90;999.90;;;5.50;99.90;;;;;;5013882;28;21042;-71
2021/12/28 08:55:08;;;;;;;1999.90;999.90;;;5.60;99.90;;;;;;5012263;28;20544;-71
2021/12/28 08:57:37;;;;;;;1999.90;999.90;;;5.60;99.90;;;;;;5015542;28;21028;-73
2021/12/28 09:00:07;;;;;;;1999.90;999.90;;;5.50;99.90;;;;;;5013637;28;20510;-71
2021/12/28 09:02:33;;;;;;;1999.90;999.90;;;5.50;99.90;;;;;;5015695;28;21003;-72
2021/12/28 09:05:00;;;;;;;1999.90;999.90;;;5.40;99.90;;;;;;5012224;28;20856;-71
2021/12/28 09:07:27;;;;;;;1999.90;999.90;;;5.50;99.90;;;;;;5013076;28;20506;-70
2021/12/28 09:09:53;;;;;;;1999.90;999.90;;;5.40;99.90;;;;;;5013315;28;20492;-71
2021/12/28 09:12:20;;;;;;;1999.90;999.90;;;5.30;99.90;;;;;;5013539;28;20869;-72
2021/12/28 09:14:48;;;;;;;1999.90;999.90;;;5.30;99.90;;;;;;5015089;28;21078;-72
2021/12/28 09:17:15;;;;;;;1999.90;999.90;;;5.30;99.90;;;;;;5014342;28;20876;-71
2021/12/28 09:19:42;;;;;;;1999.90;999.90;;;5.20;99.90;;;;;;5013898;28;20546;-71
2021/12/28 09:22:10;;;;;;;1999.90;999.90;;;5.20;99.90;;;;;;5014133;28;20456;-70
2021/12/28 09:24:37;;;;;;;1999.90;999.90;;;5.20;99.90;;;;;;5014265;28;20487;-71
2021/12/28 09:27:04;;;;;;;1999.90;999.90;;;5.30;99.90;;;;;;5014664;28;20437;-70
2021/12/28 09:29:31;;;;;;;1999.90;999.90;;;5.30;99.90;;;;;;5013544;28;20505;-70
2021/12/28 09:32:01;;;;;;;1999.90;999.90;;;5.30;99.90;;;;;;5001685;28;20571;-71
2021/12/28 09:34:28;;;;;;;1999.90;999.90;;;5.30;99.90;;;;;;5014732;28;20459;-71
2021/12/28 09:36:55;;;;;;;1999.90;999.90;;;5.20;99.90;;;;;;5014142;28;20948;-71
2021/12/28 09:39:26;;;;;;;1999.90;999.90;;;5.20;99.90;;;;;;5014840;28;20507;-73
2021/12/28 09:41:53;;;;;;;1999.90;999.90;;;5.20;99.90;;;;;;5013918;28;20531;-72
2021/12/28 09:44:20;;;;;;;1999.90;999.90;;;5.20;99.90;;;;;;5000508;28;20464;-69
2021/12/28 09:46:47;;;;;;;1999.90;999.90;;;5.30;99.90;;;;;;5014365;28;20448;-71
2021/12/28 09:49:15;;;;;;;1999.90;999.90;;;5.30;99.90;;;;;;5015475;28;20479;-71
2021/12/28 09:51:41;;;;;;;1999.90;999.90;;;5.40;99.90;;;;;;5013482;28;20499;-70
2021/12/28 09:54:08;;;;;;;1999.90;999.90;;;5.60;99.90;;;;;;4995287;28;20514;-71
2021/12/28 09:56:36;;;;;;;1999.90;999.90;;;5.70;99.90;;;;;;5007030;28;20469;-70
2021/12/28 09:59:03;;;;;;;1999.90;999.90;;;5.70;99.90;;;;;;5002755;28;20449;-71
2021/12/28 10:01:30;;;;;;;1999.90;999.90;;;5.80;99.90;;;;;;5015816;28;20456;-72
2021/12/28 10:03:57;;;;;;;1999.90;999.90;;;6.00;99.90;;;;;;5017255;28;20538;-71
2021/12/28 10:06:28;;;;;;;1999.90;999.90;;;6.10;99.90;;;;;;5005542;28;20456;-72
2021/12/28 10:09:06;;;;;;;1999.90;999.90;;;6.10;99.90;;;;;;5019226;28;20537;-71
2021/12/28 10:11:33;;;;;;;1999.90;999.90;;;6.00;99.90;;;;;;5019187;28;20482;-71
2021/12/28 10:14:12;;;;;;;1999.90;999.90;;;6.00;99.90;;;;;;5019344;28;20510;-71
2021/12/28 10:16:51;;;;;;;1999.90;999.90;;;6.30;99.90;;;;;;5016746;28;20944;-71
2021/12/28 10:19:32;;;;;;;1999.90;999.90;;;6.60;99.90;;;;;;5017583;28;20460;-71
2021/12/28 10:22:30;;;;;;;1999.90;999.90;;;7.00;99.90;;;;;;5014146;28;21029;-70
2021/12/28 10:25:00;;;;;;;1999.90;999.90;;;7.10;99.90;;;;;;5005080;28;20455;-71
2021/12/28 10:27:29;;;;;;;1999.90;999.90;;;7.20;99.90;;;;;;5008617;28;20451;-70
2021/12/28 10:30:04;;;;;;;1999.90;999.90;;;7.30;99.90;;;;;;5008073;28;20479;-71
2021/12/28 10:32:33;;;;;;;1999.90;999.90;;;7.40;99.90;;;;;;5009130;28;20472;-71
2021/12/28 10:35:02;;;;;;;1999.90;999.90;;;7.50;99.90;;;;;;5008470;28;21145;-71
2021/12/28 10:37:32;;;;;;;1999.90;999.90;;;7.60;99.90;;;;;;5005939;28;20506;-71
2021/12/28 10:40:00;;;;;;;1999.90;999.90;;;7.80;99.90;;;;;;5003574;28;21688;-72
2021/12/28 10:42:55;;;;;;;1999.90;999.90;;;8.00;99.90;;;;;;5003954;28;20809;-71
2021/12/28 10:45:24;;;;;;;1999.90;999.90;;;8.10;99.90;;;;;;4966449;28;20534;-72
2021/12/28 10:47:53;;;;;;;1999.90;999.90;;;8.10;99.90;;;;;;5006624;28;20482;-73
2021/12/28 10:50:23;;;;;;;1999.90;999.90;;;8.20;99.90;;;;;;5006861;28;21059;-74
2021/12/28 10:53:00;;;;;;;1999.90;999.90;;;8.40;99.90;;;;;;5000564;28;20852;-72
2021/12/28 10:55:28;;;;;;;1999.90;999.90;;;8.50;99.90;;;;;;4998091;28;20454;-72
2021/12/28 10:57:54;;;;;;;1999.90;999.90;;;8.60;99.90;;;;;;4999217;28;20452;-72
2021/12/28 11:00:25;;;;;;;1999.90;999.90;;;8.60;99.90;;;;;;5004790;28;20703;-73
2021/12/28 11:02:53;;;;;;;1999.90;999.90;;;8.70;99.90;;;;;;5010334;28;20480;-72
2021/12/28 11:05:33;;;;;;;1999.90;999.90;;;8.70;99.90;;;;;;5006238;28;20472;-72
2021/12/28 11:08:02;;;;;;;1999.90;999.90;;;8.90;99.90;;;;;;5011461;28;20456;-72
2021/12/28 11:10:29;;;;;;;1999.90;999.90;;;8.80;99.90;;;;;;5010312;28;20538;-72
2021/12/28 11:12:57;;;;;;;1999.90;999.90;;;8.90;99.90;;;;;;5001515;28;20499;-71
2021/12/28 11:15:25;;;;;;;1999.90;999.90;;;9.00;99.90;;;;;;5012328;28;20460;-73
2021/12/28 11:17:52;;;;;;;1999.90;999.90;;;9.10;99.90;;;;;;5017927;28;20464;-72
2021/12/28 11:20:30;;;;;;;1999.90;999.90;;;9.20;99.90;;;;;;5003657;28;20518;-74
2021/12/28 11:23:12;;;;;;;1999.90;999.90;;;9.30;99.90;;;;;;5004108;28;20470;-72
2021/12/28 11:25:39;;;;;;;1999.90;999.90;;;9.40;99.90;;;;;;5007122;28;20519;-72
2021/12/28 11:28:15;;;;;;;1999.90;999.90;;;9.40;99.90;;;;;;5003442;28;20457;-72
2021/12/28 11:31:02;;;;;;;1999.90;999.90;;;9.40;99.90;;;;;;5005071;28;20852;-73
2021/12/28 11:33:43;;;;;;;1999.90;999.90;;;9.50;99.90;;;;;;5001158;28;20499;-72
2021/12/28 11:36:10;;;;;;;1999.90;999.90;;;9.40;99.90;;;;;;5010559;28;20506;-72
2021/12/28 11:38:38;;;;;;;1999.90;999.90;;;9.50;99.90;;;;;;5011115;28;20448;-72
2021/12/28 11:41:06;;;;;;;1999.90;999.90;;;9.50;99.90;;;;;;5010173;28;20999;-71
2021/12/28 11:43:34;;;;;;;1999.90;999.90;;;9.40;99.90;;;;;;5003488;28;20468;-72
2021/12/28 11:46:00;;;;;;;1999.90;999.90;;;9.50;99.90;;;;;;5009232;28;20456;-72
2021/12/28 11:48:28;;;;;;;1999.90;999.90;;;9.60;99.90;;;;;;5004114;28;20495;-72
2021/12/28 11:50:54;;;;;;;1999.90;999.90;;;9.50;99.90;;;;;;5003896;28;20542;-74
2021/12/28 11:53:21;;;;;;;1999.90;999.90;;;9.40;99.90;;;;;;5002124;28;20472;-72
2021/12/28 11:55:49;;;;;;;1999.90;999.90;;;9.30;99.90;;;;;;5005258;28;20864;-73
2021/12/28 11:58:16;;;;;;;1999.90;999.90;;;9.40;99.90;;;;;;5007791;28;20825;-72
2021/12/28 12:00:43;;;;;;;1999.90;999.90;;;9.40;99.90;;;;;;5001895;28;20547;-72
2021/12/28 12:03:34;;;;;;;1999.90;999.90;;;9.40;99.90;;;;;;5010838;28;20543;-71
2021/12/28 12:06:01;;;;;;;1999.90;999.90;;;9.30;99.90;;;;;;5008403;28;20506;-72
2021/12/28 12:08:28;;;;;;;1999.90;999.90;;;9.40;99.90;;;;;;5012341;28;20448;-70
2021/12/28 12:11:04;;;;;;;1999.90;999.90;;;9.40;99.90;;;;;;5011012;28;20488;-72
2021/12/28 12:13:31;;;;;;;1999.90;999.90;;;9.40;99.90;;;;;;5008819;28;20918;-72